LPBJGCLA

Guest
Details From LPBJ - Beja
To GCLA - La Palma
Flight Number -
Tags Generated
Created
Modified
Stats Distance 752 nm / 1,393 km
Max Altitude 0 ft / 0 m
Waypoints 3
Social Downloads 1
Likes 0
Share VATSIM

Download

Looking for another format? Having issues loading an existing format? Contact us
Advertisement - Login to hide

Notes

Generated

Route

LPBJ BX GCLA

ID Type Via Altitude Latitude Longitude Leg Dist Tot Dist Heading (true) Name
O LPBJ APT - 0 ft / 0 m 38.06544˚ -7.93170˚ - 0 nm - -
BX NDB - 0 ft / 0 m 28.60169˚ -17.75684˚ 751 nm 751 nm 224° / 218° LA PALMA NDB
O GCLA APT - 0 ft / 0 m 28.61659˚ -17.75542˚ 0 nm 752 nm 5° / 5° -

Altitude Profile

Advertisement - Login to hide

Weather


0- 5 10 15 20 25 30 35+ Temperature / ° C

Clouds and Precipitation
Forecast for 2018-05-22 06:00 UTC. Updated 2 hours ago

Ground ~20,000 ft ~40,000 ft Winds

LPBJ

Details ICAO LPBJ
Name BEJA
Region Portugal
Timezone Europe/Lisbon (UTC+1.0)
Stats Elevation 636 ft / 194 m (AMSL)
Location 38.078784° -7.931182°
Runways 2
Magnetic Variation 1.894° W

METAR

LPBJ 220700Z /////KT 5000 BCFG SCT006 BKN012 13/13 Q1014

Decode

TAF

TAF LPBJ 220510Z 2206/2306 21004KT 1200 BCFG BKN006 PROB40 2206/2208 VRB02KT 0300 FG BKN003 BECMG 2207/2209 16008KT 9999 NSW SCT025 BECMG 2213/2215 23010KT CAVOK BECMG 2217/2219 29010KT BECMG 2223/2301 VRB02KT PROB40 2302/2306 2000 BCFG BKN004

Decode

Departure Runways

ID Width Length Bearing (true) Bearing (mag) Surface Threshold Offset Overrun Length
01L 197 ft / 60 m 11,341 ft / 3,457 m 5.90° 7.79° Concrete 0 ft / 0 m 902 ft / 275 m
01R 98 ft / 30 m 9,699 ft / 2,956 m 5.91° 7.80° Concrete 0 ft / 0 m 804 ft / 245 m
19L 98 ft / 30 m 9,699 ft / 2,956 m 185.91° 187.80° Concrete 0 ft / 0 m 833 ft / 254 m
19R 197 ft / 60 m 11,341 ft / 3,457 m 185.90° 187.79° Concrete 0 ft / 0 m 902 ft / 275 m

GCLA

Details ICAO GCLA (SPC)
Name La Palma
Region Canary Islands
Timezone Atlantic/Canary (UTC+1.0)
Stats Elevation 107 ft / 33 m (AMSL)
Location 28.626480° -17.755613°
Runways 1
Magnetic Variation 5.470° W

METAR

GCLA 220700Z 23008KT 9999 FEW040 19/14 Q1017

Decode

TAF

TAF GCLA 220200Z 2203/2303 20005KT 9999 BKN025 TX21/2214Z TN17/2205Z TEMPO 2209/2219 DZRA TEMPO 2214/2221 03012KT

Decode

Destination Runways

ID Width Length Bearing (true) Bearing (mag) Surface Threshold Offset Overrun Length
01 148 ft / 45 m 7,240 ft / 2,207 m 359.02° 4.49° Asphalt 0 ft / 0 m 279 ft / 85 m
19 148 ft / 45 m 7,240 ft / 2,207 m 179.02° 184.49° Asphalt 0 ft / 0 m 236 ft / 72 m